createdAt,value
2023-03-04T00:02:24.253Z,7.60
2023-03-04T00:07:24.859Z,7.34
2023-03-04T00:12:24.303Z,7.68
2023-03-04T00:17:26.051Z,7.48
2023-03-04T00:22:27.349Z,7.60
2023-03-04T00:27:27.508Z,7.61
2023-03-04T00:32:28.246Z,7.38
2023-03-04T00:37:29.284Z,7.49
2023-03-04T00:42:29.919Z,7.51
2023-03-04T00:47:32.146Z,7.53
2023-03-04T00:52:41.538Z,7.60
2023-03-04T00:57:43.857Z,7.39
2023-03-04T01:02:45.135Z,7.57
2023-03-04T01:07:44.876Z,7.70
2023-03-04T01:12:46.017Z,7.56
2023-03-04T01:17:44.889Z,7.55
2023-03-04T01:22:46.731Z,7.48
2023-03-04T01:27:46.919Z,7.51
2023-03-04T01:32:47.183Z,7.51
2023-03-04T01:37:50.889Z,7.58
2023-03-04T01:42:51.600Z,7.27
2023-03-04T01:47:50.041Z,7.41
2023-03-04T01:52:50.046Z,7.73
2023-03-04T01:57:52.795Z,7.83
2023-03-04T02:03:03.159Z,7.84
2023-03-04T02:08:05.060Z,7.83
2023-03-04T02:13:09.386Z,7.69
2023-03-04T02:18:18.527Z,7.77
2023-03-04T02:23:25.136Z,7.70
2023-03-04T02:28:26.623Z,7.82
2023-03-04T02:33:27.906Z,7.76
2023-03-04T02:38:29.952Z,7.74
2023-03-04T02:43:31.676Z,7.64
2023-03-04T02:48:30.080Z,7.60
2023-03-04T02:53:38.900Z,7.77
2023-03-04T02:58:52.645Z,7.60
2023-03-04T03:03:52.655Z,7.55
2023-03-04T03:08:51.698Z,7.52
2023-03-04T03:13:53.734Z,7.41
2023-03-04T03:18:54.216Z,7.45
2023-03-04T03:23:57.971Z,7.31
2023-03-04T03:28:56.398Z,7.41
2023-03-04T03:33:57.793Z,7.33
2023-03-04T03:39:20.059Z,7.19
2023-03-04T03:44:22.102Z,7.13
2023-03-04T03:49:21.824Z,7.28
2023-03-04T03:54:21.882Z,7.35
2023-03-04T03:59:26.567Z,7.29
2023-03-04T04:04:24.477Z,7.55
2023-03-04T04:09:26.472Z,7.61
2023-03-04T04:14:26.325Z,7.73
2023-03-04T04:19:27.597Z,7.58
2023-03-04T04:24:26.615Z,7.62
2023-03-04T04:29:27.963Z,7.56
2023-03-04T04:34:29.711Z,7.34
2023-03-04T04:39:39.208Z,7.12
2023-03-04T04:44:39.185Z,6.91
2023-03-04T04:49:36.557Z,7.23
2023-03-04T04:54:35.289Z,7.44
2023-03-04T04:59:34.176Z,7.79
2023-03-04T05:04:35.441Z,7.79
2023-03-04T05:09:34.925Z,7.72
2023-03-04T05:14:35.918Z,7.94
2023-03-04T05:19:37.719Z,7.88
2023-03-04T05:24:39.679Z,7.45
2023-03-04T05:29:44.939Z,7.62
2023-03-04T05:34:43.449Z,7.63
2023-03-04T05:39:41.734Z,7.69
2023-03-04T05:44:42.928Z,7.60
2023-03-04T05:49:47.844Z,7.45
2023-03-04T05:54:46.306Z,7.26
2023-03-04T05:59:44.551Z,7.50
2023-03-04T06:04:43.844Z,7.36
2023-03-04T06:09:45.247Z,7.35
2023-03-04T06:14:43.268Z,7.28
2023-03-04T06:19:43.540Z,7.47
2023-03-04T06:24:42.456Z,7.71
2023-03-04T06:29:41.948Z,7.70
2023-03-04T06:34:41.501Z,7.79
2023-03-04T06:39:40.544Z,8.18
2023-03-04T06:44:42.721Z,8.56
2023-03-04T06:49:42.069Z,8.76
2023-03-04T06:54:44.268Z,8.96
2023-03-04T06:59:44.584Z,9.14
2023-03-04T07:04:46.676Z,9.29
2023-03-04T07:09:45.252Z,9.41
2023-03-04T07:14:46.289Z,9.70
2023-03-04T07:19:48.491Z,9.51
2023-03-04T07:24:53.439Z,9.42
2023-03-04T07:29:51.415Z,9.28
2023-03-04T07:34:49.802Z,9.00
2023-03-04T07:39:50.901Z,9.02
2023-03-04T07:44:53.364Z,9.14
2023-03-04T07:49:53.704Z,9.60
2023-03-04T07:54:52.438Z,9.78
2023-03-04T07:59:52.059Z,9.83
2023-03-04T08:04:52.779Z,10.03
2023-03-04T08:09:55.437Z,10.14
2023-03-04T08:14:55.181Z,9.63
2023-03-04T08:19:57.607Z,9.48
2023-03-04T08:24:56.089Z,9.66
2023-03-04T08:29:57.963Z,9.83
2023-03-04T08:34:59.099Z,10.18
2023-03-04T08:40:01.884Z,10.36
2023-03-04T08:45:04.321Z,10.41
2023-03-04T08:50:13.832Z,9.88
2023-03-04T08:55:12.520Z,9.91
2023-03-04T09:00:12.941Z,10.04
2023-03-04T09:05:14.675Z,10.01
2023-03-04T09:10:16.080Z,10.17
2023-03-04T09:15:16.841Z,10.42
2023-03-04T09:20:17.697Z,10.98
2023-03-04T09:25:19.036Z,11.31
2023-03-04T09:30:19.131Z,11.22
2023-03-04T09:35:19.231Z,11.14
2023-03-04T09:40:19.572Z,11.59
2023-03-04T09:45:27.719Z,11.71
2023-03-04T09:50:24.918Z,11.83
2023-03-04T09:55:36.290Z,11.99
2023-03-04T10:00:39.709Z,11.97
2023-03-04T10:05:40.178Z,12.02
2023-03-04T10:10:39.934Z,12.20
2023-03-04T10:15:44.388Z,11.99
2023-03-04T10:20:50.512Z,12.48
2023-03-04T10:26:02.646Z,12.69
2023-03-04T10:31:11.250Z,12.58
2023-03-04T10:36:24.953Z,12.72
2023-03-04T10:41:24.982Z,12.88
2023-03-04T10:46:25.270Z,12.83
2023-03-04T10:51:27.660Z,13.28
2023-03-04T10:56:34.310Z,12.96
2023-03-04T11:01:35.721Z,12.48
2023-03-04T11:06:40.217Z,12.31
2023-03-04T11:11:44.904Z,12.33
2023-03-04T11:16:48.277Z,12.26
2023-03-04T11:21:48.662Z,12.30
2023-03-04T11:26:51.670Z,12.38
2023-03-04T11:32:02.930Z,12.37
2023-03-04T11:37:13.771Z,12.58
2023-03-04T11:42:45.710Z,12.77
2023-03-04T11:47:57.319Z,12.60
2023-03-04T11:53:00.593Z,12.87
2023-03-04T11:57:58.737Z,13.27
2023-03-04T12:02:59.424Z,13.43
2023-03-04T12:08:06.434Z,13.26
2023-03-04T12:13:17.088Z,13.21
2023-03-04T12:18:16.122Z,13.24
2023-03-04T12:23:23.427Z,13.38
2023-03-04T12:28:22.073Z,13.32
2023-03-04T12:33:27.162Z,13.53
2023-03-04T12:38:59.515Z,13.60
2023-03-04T12:44:00.028Z,13.64
2023-03-04T12:49:01.453Z,13.48
2023-03-04T12:54:11.934Z,13.78
2023-03-04T12:59:22.998Z,13.70
2023-03-04T13:04:44.912Z,13.97
2023-03-04T13:09:53.447Z,13.94
2023-03-04T13:15:06.886Z,13.93
2023-03-04T13:20:26.281Z,13.94
2023-03-04T13:25:38.154Z,14.00
2023-03-04T13:30:38.270Z,14.11
2023-03-04T13:36:03.093Z,14.27
2023-03-04T13:41:01.614Z,14.23
2023-03-04T13:46:15.628Z,14.09
2023-03-04T13:56:51.471Z,13.83
2023-03-04T14:02:01.093Z,14.00
2023-03-04T14:07:00.125Z,13.97
2023-03-04T14:12:16.283Z,14.48
2023-03-04T14:17:16.917Z,14.58
2023-03-04T14:22:21.303Z,14.78
2023-03-04T14:27:47.363Z,15.09
2023-03-04T14:32:48.724Z,15.62
2023-03-04T14:37:50.488Z,16.64
2023-03-04T14:42:51.474Z,15.56
2023-03-04T14:47:51.972Z,15.73
2023-03-04T14:53:06.927Z,16.35
2023-03-04T14:58:09.063Z,16.09
2023-03-04T15:03:22.800Z,15.54
2023-03-04T15:08:28.050Z,15.30
2023-03-04T15:13:39.402Z,14.74
2023-03-04T15:18:36.728Z,14.48
2023-03-04T15:23:36.598Z,14.36
2023-03-04T15:28:35.374Z,14.30
2023-03-04T15:33:35.432Z,13.97
2023-03-04T15:38:34.281Z,13.65
2023-03-04T15:43:35.706Z,13.38
2023-03-04T15:48:35.906Z,13.18
2023-03-04T15:53:36.937Z,12.96
2023-03-04T15:58:35.265Z,12.76
2023-03-04T16:03:36.314Z,12.51
2023-03-04T16:08:36.286Z,12.41
2023-03-04T16:13:34.952Z,12.17
2023-03-04T16:18:33.187Z,12.10
2023-03-04T16:23:35.818Z,11.98
2023-03-04T16:28:36.385Z,11.91
2023-03-04T16:33:37.743Z,11.74
2023-03-04T16:38:40.271Z,11.68
2023-03-04T16:43:38.003Z,11.52
2023-03-04T16:48:39.590Z,11.43
2023-03-04T16:53:40.836Z,11.38
2023-03-04T16:58:40.216Z,11.27
2023-03-04T17:03:37.517Z,11.13
2023-03-04T17:08:34.925Z,10.99
2023-03-04T17:13:33.256Z,10.95
2023-03-04T17:18:35.504Z,10.81
2023-03-04T17:23:40.286Z,10.82
2023-03-04T17:28:38.768Z,10.83
2023-03-04T17:33:40.677Z,10.79
2023-03-04T17:38:40.879Z,10.68
2023-03-04T17:43:38.660Z,10.65
2023-03-04T17:48:39.660Z,10.61
2023-03-04T17:53:40.275Z,10.49
2023-03-04T17:58:37.540Z,10.36
2023-03-04T18:03:35.507Z,10.32
2023-03-04T18:08:36.349Z,10.17
2023-03-04T18:13:36.042Z,10.20
2023-03-04T18:18:36.638Z,10.08
2023-03-04T18:23:39.879Z,10.13
2023-03-04T18:28:37.551Z,9.87
2023-03-04T18:33:37.878Z,9.96
2023-03-04T18:38:35.850Z,9.80
2023-03-04T18:43:38.686Z,9.75
2023-03-04T18:48:37.770Z,9.81
2023-03-04T18:53:38.100Z,9.96
2023-03-04T18:58:36.798Z,9.92
2023-03-04T19:03:34.708Z,9.83
2023-03-04T19:08:36.492Z,9.88
2023-03-04T19:13:37.245Z,9.90
2023-03-04T19:18:37.592Z,9.82
2023-03-04T19:23:37.867Z,9.87
2023-03-04T19:28:36.044Z,9.95
2023-03-04T19:33:37.437Z,9.91
2023-03-04T19:38:43.853Z,9.82
2023-03-04T19:43:41.340Z,9.71
2023-03-04T19:48:40.959Z,9.64
2023-03-04T19:53:38.735Z,9.62
2023-03-04T19:58:39.467Z,9.75
2023-03-04T20:03:44.065Z,9.55
2023-03-04T20:08:41.711Z,9.48
2023-03-04T20:13:42.280Z,9.33
2023-03-04T20:18:39.743Z,9.24
2023-03-04T20:23:39.955Z,9.18
2023-03-04T20:28:38.279Z,9.05
2023-03-04T20:33:36.645Z,8.93
2023-03-04T20:38:33.940Z,8.85
2023-03-04T20:43:32.050Z,8.83
2023-03-04T20:48:30.130Z,8.76
2023-03-04T20:53:31.009Z,8.82
2023-03-04T20:58:29.066Z,8.93
2023-03-04T21:03:29.239Z,8.88
2023-03-04T21:08:27.380Z,8.85
2023-03-04T21:13:30.579Z,8.86
2023-03-04T21:18:30.091Z,8.90
2023-03-04T21:23:32.178Z,8.91
2023-03-04T21:28:32.597Z,8.81
2023-03-04T21:33:34.098Z,8.84
2023-03-04T21:38:34.997Z,8.71
2023-03-04T21:43:36.994Z,8.65
2023-03-04T21:48:35.029Z,8.51
2023-03-04T21:53:33.849Z,8.41
2023-03-04T21:58:35.479Z,8.42
2023-03-04T22:03:33.765Z,8.37
2023-03-04T22:08:34.610Z,8.25
2023-03-04T22:13:34.268Z,8.12
2023-03-04T22:18:33.972Z,7.94
2023-03-04T22:23:33.703Z,7.86
2023-03-04T22:28:32.296Z,7.89
2023-03-04T22:33:40.290Z,7.86
2023-03-04T22:38:44.769Z,7.83
2023-03-04T22:43:42.570Z,7.81
2023-03-04T22:48:44.627Z,7.79
2023-03-04T22:53:44.906Z,7.79
2023-03-04T22:58:45.832Z,7.85
2023-03-04T23:03:46.581Z,7.81
2023-03-04T23:08:47.980Z,7.71
2023-03-04T23:13:46.523Z,7.73
2023-03-04T23:18:47.546Z,7.69
2023-03-04T23:23:47.802Z,7.52
2023-03-04T23:28:48.290Z,7.39
2023-03-04T23:33:48.806Z,7.41
2023-03-04T23:38:50.696Z,7.36
2023-03-04T23:43:52.194Z,7.35
2023-03-04T23:48:53.258Z,7.48
2023-03-04T23:53:54.399Z,7.38
2023-03-04T23:58:56.930Z,7.46
